• Join FlightAware (Why Join?)
  • Login
  • US Flag 
09:15PM EST


 

Airport Tracker/Info


-or-


 

Live Flight TrackerFlight Track Log ✈ ASQ4366 ✈ 29-Jun-2013 ✈ KIAH - KBHM

Flight Track Log - Related Links

Times and Time Zones

All times are in EDT time to prevent confusion due to time zone crossing. See the ASQ4366 flight status page for this flight to view local times or setup timezone preferences in your user account.

Time Position Orientation Groundspeed Altitude Reporting Facility
EDT Latitude Longitude Course Direction KTS MPH feet Rate Location/Type
09:04AM 29.9450 -95.3456 35° Northeast 194 223 700  Level Houston Center
09:05AM 29.9717 -95.3617 332° Northwest 220 253 2,800 1,560 Climbing Houston Center
09:06AM 30.0108 -95.3358 30° Northeast 246 283 3,600 1,500 Climbing Houston Center
09:07AM 30.3559 -95.0353 35° Northeast  Level FlightAware Approximate
09:07AM 30.0750 -95.2892 32° Northeast 261 300 5,600  Level Houston Center
09:08AM 30.4455 -94.9545 41° Northeast  Level FlightAware Approximate
09:08AM 30.1350 -95.2386 36° Northeast 271 312 7,800  Level Houston Center
09:09AM 30.5417 -94.8900 35° Northeast  Level FlightAware Approximate
09:09AM 30.1956 -95.1894 35° Northeast 267 307 9,900  Level Houston Center
09:10AM 30.2683 -95.1292 36° Northeast 266 306 11,300 1,020 Climbing Houston Center
09:11AM 30.3378 -95.0719 35° Northeast 295 339 12,100 1,080 Climbing Houston Center
09:12AM 30.4086 -95.0136 35° Northeast 310 357 13,600 1,500 Climbing Houston Center
09:13AM 30.4772 -94.9553 36° Northeast 304 350 15,200 1,380 Climbing Houston Center
09:14AM 30.5467 -94.8964 36° Northeast 306 352 16,500 1,260 Climbing Houston Center
09:15AM 30.6183 -94.8422 33° Northeast 308 354 17,800 1,260 Climbing Houston Center
09:16AM 30.6914 -94.7856 34° Northeast 312 359 19,100 1,200 Climbing Houston Center
09:17AM 30.7664 -94.7283 33° Northeast 319 367 20,300 1,260 Climbing Houston Center
09:18AM 30.8569 -94.6572 34° Northeast 327 376 21,800 1,320 Climbing Houston Center
09:19AM 30.9333 -94.5986 33° Northeast 329 379 23,100 1,200 Climbing Houston Center
09:20AM 31.0092 -94.5389 34° Northeast 331 381 24,300 1,140 Climbing Houston Center
09:21AM 31.0844 -94.4811 33° Northeast 328 377 25,500 1,140 Climbing Houston Center
09:22AM 31.1594 -94.4231 34° Northeast 326 375 26,700 1,080 Climbing Houston Center
09:23AM 31.2353 -94.3636 34° Northeast 330 380 27,800 1,020 Climbing Houston Center
09:24AM 31.3133 -94.3028 34° Northeast 336 387 28,800 1,080 Climbing Houston Center
09:25AM 31.4078 -94.2297 33° Northeast 340 391 30,100 1,080 Climbing Houston Center
09:26AM 31.4869 -94.1678 34° Northeast 341 392 31,100 1,020 Climbing Houston Center
09:27AM 31.5664 -94.1058 34° Northeast 342 394 32,200 1,020 Climbing Houston Center
09:28AM 31.6453 -94.0428 34° Northeast 344 396 33,200 780 Climbing Houston Center
09:29AM 31.7186 -93.9708 40° Northeast 345 397 33,900 600 Climbing Houston Center
09:30AM 31.7683 -93.8672 61° Northeast 362 417 34,500 480 Climbing Houston Center
09:31AM 31.8214 -93.7608 60° Northeast 370 426 35,000 240 Climbing Houston Center
09:32AM 31.8756 -93.6500 60° Northeast 388 447 35,000  Level Houston Center
09:33AM 31.9336 -93.5322 60° Northeast 412 474 35,000  Level Houston Center
09:35AM 32.0833 -93.2281 60° Northeast 438 504 35,000  Level Fort Worth Center
09:36AM 32.1478 -93.0975 60° Northeast 454 522 35,000  Level Fort Worth Center
09:37AM 32.2119 -92.9619 61° Northeast 460 529 35,000  Level Fort Worth Center
09:38AM 32.2592 -92.8197 69° East 460 529 35,000  Level Fort Worth Center
09:39AM 32.3039 -92.6772 70° East 452 520 35,000  Level Fort Worth Center
09:40AM 32.3464 -92.5325 71° East 457 526 35,000  Level Fort Worth Center
09:41AM 32.3928 -92.3872 69° East 457 526 35,000  Level Fort Worth Center
09:43AM 32.4586 -92.1669 70° East 461 531 35,000  Level Memphis Center
09:44AM 32.5000 -92.0272 71° East 455 524 35,000  Level Memphis Center
09:45AM 32.5394 -91.8828 72° East 455 524 35,000  Level Memphis Center
09:46AM 32.5808 -91.7356 72° East 455 524 35,000  Level Memphis Center
09:47AM 32.6261 -91.5931 69° East 455 524 35,000  Level Memphis Center
09:48AM 32.6653 -91.4481 72° East 455 524 35,000  Level Memphis Center
09:49AM 32.7017 -91.3028 73° East 460 529 35,000  Level Memphis Center
09:50AM 32.7319 -91.1697 75° East 460 529 35,000  Level Memphis Center
09:51AM 32.7661 -91.0194 75° East 460 529 35,000  Level Memphis Center
09:52AM 32.8025 -90.8739 73° East 454 522 35,000  Level Memphis Center
09:53AM 32.8364 -90.7233 75° East 454 522 35,000  Level Memphis Center
09:54AM 32.8722 -90.5750 74° East 454 522 35,000  Level Memphis Center
09:55AM 32.9078 -90.4242 74° East 454 522 35,000  Level Memphis Center
09:56AM 32.9433 -90.2781 74° East 459 528 35,000  Level Memphis Center
09:57AM 32.9786 -90.1269 74° East 459 528 35,000 -240 Level Memphis Center
09:58AM 33.0158 -89.9781 73° East 459 528 34,600 -720 Descending Memphis Center
09:59AM 33.0547 -89.8044 75° East 472 543 33,600 -1,200 Descending Memphis Center
10:00AM 33.0875 -89.6481 76° East 477 549 32,300 -1,380 Descending Memphis Center
10:01AM 33.1219 -89.4942 75° East 477 549 30,900 -1,500 Descending Memphis Center
10:02AM 33.1542 -89.3447 76° East 471 542 29,400 -1,500 Descending Memphis Center
10:03AM 33.1864 -89.1981 75° East 466 536 28,000 -1,440 Descending Memphis Center
10:04AM 33.2203 -89.0511 75° East 461 531 26,600 -1,500 Descending Memphis Center
10:05AM 33.2522 -88.9064 75° East 453 521 25,100 -1,500 Descending Memphis Center
10:06AM 33.2836 -88.7644 75° East 453 521 23,700 -1,080 Descending Memphis Center
10:07AM 33.3131 -88.6222 76° East 453 521 23,000 -360 Descending Memphis Center
10:08AM 33.3444 -88.4797 75° East 448 516 23,000  Level Memphis Center
10:09AM 33.3717 -88.3472 76° East 442 509 23,000 -1,440 Level Memphis Center
10:12AM 33.4519 -87.9625 76° East 436 502 17,700 -2,100 Descending Atlanta Center
10:13AM 33.4769 -87.8317 77° East 423 487 15,200 -2,580 Descending Atlanta Center
10:13AM 33.5036 -87.7133 75° East 396 456 13,100 -2,100 Descending Atlanta Center
10:15AM 33.5325 -87.5775 76° East 395 455 11,100 -1,020 Descending Atlanta Center
10:16AM 33.5569 -87.4514 77° East 391 450 11,000 -240 Descending Atlanta Center
10:17AM 33.5764 -87.3500 77° East 318 366 10,700 -1,320 Descending Atlanta Center
10:18AM 33.6006 -87.2286 77° East 298 343 8,300 -1,740 Descending Atlanta Center
10:19AM 33.6172 -87.1469 76° East 302 348 7,000 -1,680 Descending Atlanta Center
10:20AM 33.6342 -87.0503 78° East 296 341 5,100 -1,740 Descending Atlanta Center
10:21AM 33.6511 -86.9586 77° East 291 335 3,600 -1,080 Descending Atlanta Center
10:22AM 33.6697 -86.8744 75° East 270 311 3,000 -300 Descending Atlanta Center
10:23AM 33.6931 -86.7628 76° East 255 293 3,000  Level Atlanta Center
10:24AM 33.7139 -86.6786 73° East 261 300 3,000  Level Atlanta Center
10:25AM 33.7153 -86.6136 89° East 266 306 3,100 120 Climbing Atlanta Center